Aviation Digital Data Service (ADDS)

Output produced by METARs form (0100 UTC 22 September 2017)
found at http://www.aviationweather.gov/adds/metars/
 
GBYD 220100Z 00000KT 9999 SCT011 26/25 Q1010
TAF GBYD 212330Z 2200/2306 26007KT 9999 SCT012